createdAt,value
2023-02-16T00:02:41.884Z,48.29
2023-02-16T00:05:32.844Z,48.33
2023-02-16T00:08:21.975Z,48.08
2023-02-16T00:11:33.734Z,48.34
2023-02-16T00:14:26.282Z,47.86
2023-02-16T00:17:15.083Z,47.94
2023-02-16T00:20:03.916Z,47.92
2023-02-16T00:22:52.839Z,48.38
2023-02-16T00:25:41.745Z,48.19
2023-02-16T00:28:31.223Z,48.24
2023-02-16T00:31:23.813Z,48.18
2023-02-16T00:34:27.967Z,48.45
2023-02-16T00:37:16.808Z,48.38
2023-02-16T00:40:06.233Z,48.23
2023-02-16T00:42:57.496Z,48.09
2023-02-16T00:45:46.449Z,48.06
2023-02-16T00:48:36.887Z,48.07
2023-02-16T00:51:26.655Z,48.11
2023-02-16T00:54:16.044Z,48.25
2023-02-16T00:57:05.359Z,48.11
2023-02-16T01:00:00.269Z,48.22
2023-02-16T01:02:50.207Z,48.13
2023-02-16T01:05:40.566Z,48.08
2023-02-16T01:08:47.355Z,48.11
2023-02-16T01:11:36.247Z,48.16
2023-02-16T01:14:25.377Z,48.03
2023-02-16T01:17:14.226Z,48.03
2023-02-16T01:20:04.335Z,48.11
2023-02-16T01:22:54.785Z,48.09
2023-02-16T01:25:43.952Z,48.34
2023-02-16T01:28:35.795Z,47.97
2023-02-16T01:31:24.921Z,48.50
2023-02-16T01:34:14.120Z,48.29
2023-02-16T01:37:03.365Z,48.03
2023-02-16T01:39:53.915Z,48.22
2023-02-16T01:42:48.985Z,48.26
2023-02-16T01:45:40.158Z,48.07
2023-02-16T01:48:32.175Z,48.40
2023-02-16T01:51:24.173Z,48.42
2023-02-16T01:54:16.773Z,48.38
2023-02-16T01:57:14.112Z,48.11
2023-02-16T02:00:09.311Z,48.58
2023-02-16T02:03:20.628Z,48.56
2023-02-16T02:06:09.971Z,48.26
2023-02-16T02:09:01.702Z,48.29
2023-02-16T02:11:53.720Z,48.49
2023-02-16T02:14:44.229Z,48.37
2023-02-16T02:17:34.055Z,48.65
2023-02-16T02:20:48.557Z,48.16
2023-02-16T02:24:00.294Z,48.49
2023-02-16T02:27:12.560Z,48.41
2023-02-16T02:30:17.073Z,48.45
2023-02-16T02:33:17.801Z,48.28
2023-02-16T02:36:15.851Z,48.14
2023-02-16T02:39:14.880Z,48.26
2023-02-16T02:42:09.523Z,48.29
2023-02-16T02:45:02.312Z,48.21
2023-02-16T02:47:51.696Z,48.36
2023-02-16T02:51:04.061Z,48.33
2023-02-16T02:54:14.815Z,48.03
2023-02-16T02:57:27.756Z,48.38
2023-02-16T03:00:39.275Z,48.58
2023-02-16T03:03:32.086Z,48.31
2023-02-16T03:06:25.251Z,48.38
2023-02-16T03:09:15.643Z,48.31
2023-02-16T03:12:24.895Z,48.42
2023-02-16T03:15:13.966Z,48.13
2023-02-16T03:18:21.715Z,48.42
2023-02-16T03:21:28.422Z,48.25
2023-02-16T03:24:38.588Z,48.39
2023-02-16T03:27:49.212Z,48.49
2023-02-16T03:30:38.739Z,48.14
2023-02-16T03:33:28.082Z,48.39
2023-02-16T03:36:17.177Z,48.52
2023-02-16T03:39:07.278Z,48.54
2023-02-16T03:41:58.134Z,48.46
2023-02-16T03:44:48.579Z,48.47
2023-02-16T03:47:37.735Z,48.25
2023-02-16T03:50:27.594Z,48.31
2023-02-16T03:53:18.229Z,48.60
2023-02-16T03:56:07.880Z,48.42
2023-02-16T03:58:56.606Z,48.70
2023-02-16T04:01:47.118Z,48.47
2023-02-16T04:04:36.493Z,48.49
2023-02-16T04:07:25.762Z,48.36
2023-02-16T04:10:15.459Z,48.32
2023-02-16T04:13:03.457Z,48.35
2023-02-16T04:15:52.829Z,48.51
2023-02-16T04:18:44.287Z,48.29
2023-02-16T04:21:33.501Z,48.55
2023-02-16T04:24:22.293Z,48.22
2023-02-16T04:27:15.145Z,48.47
2023-02-16T04:30:04.127Z,48.46
2023-02-16T04:32:53.492Z,48.30
2023-02-16T04:35:44.196Z,48.33
2023-02-16T04:38:33.931Z,48.59
2023-02-16T04:41:22.893Z,48.58
2023-02-16T04:44:11.785Z,48.62
2023-02-16T04:47:01.032Z,48.32
2023-02-16T04:49:50.399Z,48.44
2023-02-16T04:52:41.555Z,48.43
2023-02-16T04:55:31.086Z,48.40
2023-02-16T04:58:19.955Z,48.60
2023-02-16T05:01:09.497Z,48.74
2023-02-16T05:03:58.742Z,48.33
2023-02-16T05:06:47.964Z,48.42
2023-02-16T05:09:38.161Z,48.40
2023-02-16T05:12:44.708Z,48.25
2023-02-16T05:15:35.339Z,48.60
2023-02-16T05:18:24.510Z,48.59
2023-02-16T05:21:31.008Z,48.26
2023-02-16T05:24:20.303Z,47.81
2023-02-16T05:27:14.170Z,47.77
2023-02-16T05:30:03.161Z,48.05
2023-02-16T05:32:52.233Z,47.88
2023-02-16T05:35:41.051Z,48.62
2023-02-16T05:38:30.392Z,48.40
2023-02-16T05:41:24.612Z,48.14
2023-02-16T05:44:15.126Z,48.38
2023-02-16T05:47:04.043Z,48.15
2023-02-16T05:49:52.828Z,48.58
2023-02-16T05:52:41.746Z,48.14
2023-02-16T05:55:30.719Z,47.94
2023-02-16T05:58:19.533Z,48.05
2023-02-16T06:01:10.429Z,48.36
2023-02-16T06:03:59.768Z,48.36
2023-02-16T06:06:48.727Z,48.15
2023-02-16T06:09:38.259Z,47.93
2023-02-16T06:12:27.266Z,48.04
2023-02-16T06:15:16.186Z,48.38
2023-02-16T06:18:06.545Z,48.30
2023-02-16T06:20:58.701Z,48.30
2023-02-16T06:23:48.071Z,48.37
2023-02-16T06:26:37.166Z,48.24
2023-02-16T06:29:28.601Z,48.73
2023-02-16T06:32:18.427Z,48.62
2023-02-16T06:35:10.171Z,48.47
2023-02-16T06:37:59.538Z,48.74
2023-02-16T06:40:48.650Z,48.93
2023-02-16T06:43:38.608Z,48.80
2023-02-16T06:46:27.950Z,48.71
2023-02-16T06:49:19.490Z,49.02
2023-02-16T06:52:10.252Z,48.97
2023-02-16T06:54:59.013Z,49.16
2023-02-16T06:57:48.011Z,49.14
2023-02-16T07:00:37.466Z,48.88
2023-02-16T07:03:26.388Z,49.18
2023-02-16T07:06:15.785Z,49.06
2023-02-16T07:09:06.776Z,49.07
2023-02-16T07:11:55.953Z,49.29
2023-02-16T07:14:45.587Z,48.98
2023-02-16T07:17:34.927Z,49.46
2023-02-16T07:20:24.168Z,49.28
2023-02-16T07:23:14.480Z,49.16
2023-02-16T07:26:05.591Z,49.34
2023-02-16T07:28:54.682Z,49.25
2023-02-16T07:31:43.854Z,49.30
2023-02-16T07:34:33.693Z,49.01
2023-02-16T07:37:22.716Z,49.24
2023-02-16T07:40:12.967Z,49.22
2023-02-16T07:43:04.697Z,48.89
2023-02-16T07:45:53.807Z,48.94
2023-02-16T07:48:42.610Z,49.07
2023-02-16T07:51:33.147Z,49.12
2023-02-16T07:54:22.425Z,49.01
2023-02-16T07:57:11.860Z,48.99
2023-02-16T08:00:02.275Z,49.12
2023-02-16T08:02:51.846Z,49.08
2023-02-16T08:05:42.116Z,49.24
2023-02-16T08:08:34.334Z,49.07
2023-02-16T08:11:25.397Z,48.98
2023-02-16T08:14:14.306Z,49.18
2023-02-16T08:17:05.051Z,48.90
2023-02-16T08:19:54.233Z,48.92
2023-02-16T08:22:43.676Z,48.55
2023-02-16T08:25:32.483Z,48.61
2023-02-16T08:28:22.418Z,48.77
2023-02-16T08:31:11.382Z,48.53
2023-02-16T08:34:03.560Z,48.49
2023-02-16T08:36:56.312Z,48.36
2023-02-16T08:39:45.565Z,48.51
2023-02-16T08:42:34.615Z,48.41
2023-02-16T08:45:23.688Z,48.33
2023-02-16T08:48:12.948Z,48.15
2023-02-16T08:51:03.423Z,48.49
2023-02-16T08:53:52.445Z,48.15
2023-02-16T08:56:48.603Z,48.16
2023-02-16T08:59:37.765Z,48.22
2023-02-16T09:02:27.889Z,47.99
2023-02-16T09:05:17.040Z,47.85
2023-02-16T09:08:08.951Z,47.76
2023-02-16T09:10:57.692Z,47.37
2023-02-16T09:13:47.006Z,47.57
2023-02-16T09:16:38.872Z,47.56
2023-02-16T09:19:28.531Z,47.21
2023-02-16T09:22:17.777Z,47.37
2023-02-16T09:25:10.899Z,47.45
2023-02-16T09:27:59.885Z,47.14
2023-02-16T09:30:49.356Z,47.20
2023-02-16T09:33:38.593Z,47.03
2023-02-16T09:36:27.544Z,46.96
2023-02-16T09:39:18.033Z,47.05
2023-02-16T09:42:20.998Z,46.96
2023-02-16T09:45:14.464Z,47.05
2023-02-16T09:48:03.648Z,47.01
2023-02-16T09:50:55.351Z,47.12
2023-02-16T09:53:46.686Z,46.98
2023-02-16T09:56:39.857Z,46.65
2023-02-16T09:59:43.827Z,46.59
2023-02-16T10:02:46.442Z,46.69
2023-02-16T10:05:45.784Z,46.57
2023-02-16T10:08:38.969Z,46.88
2023-02-16T10:11:42.578Z,46.95
2023-02-16T10:14:37.491Z,46.50
2023-02-16T10:17:33.545Z,46.76
2023-02-16T10:20:26.035Z,46.68
2023-02-16T10:23:33.585Z,46.54
2023-02-16T10:26:28.713Z,46.78
2023-02-16T10:29:19.931Z,46.70
2023-02-16T10:32:18.401Z,46.71
2023-02-16T10:35:15.579Z,46.56
2023-02-16T10:38:07.936Z,46.57
2023-02-16T10:41:00.297Z,46.69
2023-02-16T10:43:54.286Z,46.27
2023-02-16T10:46:46.552Z,46.23
2023-02-16T10:49:38.418Z,46.47
2023-02-16T10:52:27.568Z,46.41
2023-02-16T10:55:17.205Z,46.63
2023-02-16T10:58:06.282Z,46.38
2023-02-16T11:01:03.661Z,46.16
2023-02-16T11:03:54.547Z,46.10
2023-02-16T11:06:44.946Z,46.02
2023-02-16T11:09:34.838Z,46.15
2023-02-16T11:12:30.193Z,46.23
2023-02-16T11:15:26.384Z,46.06
2023-02-16T11:18:28.783Z,46.04
2023-02-16T11:21:18.528Z,46.07
2023-02-16T11:24:13.204Z,46.19
2023-02-16T11:27:06.432Z,46.19
2023-02-16T11:30:22.681Z,46.16
2023-02-16T11:33:23.598Z,46.19
2023-02-16T11:36:30.355Z,46.64
2023-02-16T11:39:22.638Z,46.13
2023-02-16T11:42:24.236Z,46.52
2023-02-16T11:45:26.718Z,46.12
2023-02-16T11:48:16.582Z,45.89
2023-02-16T11:51:07.712Z,46.13
2023-02-16T11:54:02.336Z,45.89
2023-02-16T11:57:05.800Z,40.98
2023-02-16T11:59:54.926Z,38.71
2023-02-16T12:03:13.519Z,36.82
2023-02-16T12:06:13.226Z,36.89
2023-02-16T12:09:11.780Z,36.38
2023-02-16T12:12:08.541Z,36.33
2023-02-16T12:15:04.691Z,39.17
2023-02-16T12:18:03.139Z,40.62
2023-02-16T12:20:59.023Z,42.10
2023-02-16T12:23:57.576Z,42.59
2023-02-16T12:26:50.808Z,43.11
2023-02-16T12:29:48.776Z,43.18
2023-02-16T12:33:03.507Z,43.04
2023-02-16T12:36:13.756Z,43.35
2023-02-16T12:39:14.867Z,43.85
2023-02-16T12:42:29.502Z,43.69
2023-02-16T12:45:22.151Z,43.48
2023-02-16T12:48:23.648Z,43.71
2023-02-16T12:51:17.628Z,43.91
2023-02-16T12:54:11.229Z,43.92
2023-02-16T12:57:03.833Z,44.11
2023-02-16T12:59:57.460Z,42.93
2023-02-16T13:02:50.922Z,43.16
2023-02-16T13:05:40.686Z,40.75
2023-02-16T13:08:39.381Z,38.20
2023-02-16T13:11:34.646Z,36.69
2023-02-16T13:14:25.486Z,36.31
2023-02-16T13:17:20.065Z,35.96
2023-02-16T13:20:18.076Z,35.43
2023-02-16T13:23:30.664Z,35.52
2023-02-16T13:26:27.885Z,35.11
2023-02-16T13:29:36.078Z,34.56
2023-02-16T13:32:43.214Z,34.79
2023-02-16T13:35:57.499Z,34.67
2023-02-16T13:39:12.698Z,34.26
2023-02-16T13:42:35.773Z,33.77
2023-02-16T13:45:26.917Z,33.82
2023-02-16T13:48:18.044Z,33.69
2023-02-16T13:51:12.721Z,33.46
2023-02-16T13:54:03.994Z,32.83
2023-02-16T13:56:52.804Z,32.10
2023-02-16T14:00:05.680Z,33.48
2023-02-16T14:02:58.627Z,35.71
2023-02-16T14:05:49.072Z,37.30
2023-02-16T14:08:39.503Z,37.57
2023-02-16T14:11:28.440Z,38.25
2023-02-16T14:14:28.923Z,38.56
2023-02-16T14:17:26.679Z,39.23
2023-02-16T14:20:31.367Z,38.76
2023-02-16T14:23:29.379Z,37.84
2023-02-16T14:26:21.183Z,37.60
2023-02-16T14:29:21.350Z,37.24
2023-02-16T14:32:24.139Z,36.98
2023-02-16T14:35:20.393Z,37.16
2023-02-16T14:38:37.108Z,37.56
2023-02-16T14:45:53.957Z,39.04
2023-02-16T14:49:13.456Z,37.93
2023-02-16T14:52:37.336Z,37.16
2023-02-16T14:55:48.770Z,36.87
2023-02-16T14:58:43.053Z,36.92
2023-02-16T15:01:41.564Z,37.08
2023-02-16T15:04:31.501Z,37.44
2023-02-16T15:07:21.705Z,37.54
2023-02-16T15:10:18.424Z,37.05
2023-02-16T15:13:07.515Z,36.84
2023-02-16T15:16:00.302Z,36.95
2023-02-16T15:18:53.743Z,37.12
2023-02-16T15:21:42.453Z,37.39
2023-02-16T15:24:31.247Z,37.28
2023-02-16T15:27:23.412Z,36.87
2023-02-16T15:30:23.373Z,36.65
2023-02-16T15:33:14.650Z,36.39
2023-02-16T15:36:08.988Z,36.64
2023-02-16T15:38:59.620Z,36.89
2023-02-16T15:41:50.393Z,36.88
2023-02-16T15:44:39.368Z,36.65
2023-02-16T15:47:28.868Z,37.39
2023-02-16T15:50:20.014Z,37.38
2023-02-16T15:53:14.106Z,37.97
2023-02-16T15:56:04.923Z,37.74
2023-02-16T15:58:54.666Z,37.53
2023-02-16T16:01:43.606Z,37.52
2023-02-16T16:04:39.132Z,37.45
2023-02-16T16:07:30.721Z,37.61
2023-02-16T16:10:26.361Z,37.61
2023-02-16T16:13:20.311Z,37.75
2023-02-16T16:16:10.122Z,38.28
2023-02-16T16:19:08.378Z,38.14
2023-02-16T16:21:57.973Z,38.12
2023-02-16T16:24:48.638Z,38.35
2023-02-16T16:27:39.333Z,38.24
2023-02-16T16:30:30.209Z,38.74
2023-02-16T16:33:19.085Z,39.44
2023-02-16T16:36:13.235Z,39.59
2023-02-16T16:39:25.492Z,40.52
2023-02-16T16:42:19.756Z,40.33
2023-02-16T16:45:36.529Z,40.40
2023-02-16T16:48:28.234Z,40.49
2023-02-16T16:51:21.416Z,40.84
2023-02-16T16:54:12.927Z,40.85
2023-02-16T16:57:01.802Z,40.89
2023-02-16T16:59:50.860Z,40.86
2023-02-16T17:02:41.137Z,41.30
2023-02-16T17:05:29.867Z,41.51
2023-02-16T17:08:19.020Z,41.42
2023-02-16T17:11:09.660Z,41.31
2023-02-16T17:13:59.923Z,41.47
2023-02-16T17:16:50.726Z,41.77
2023-02-16T17:19:42.396Z,41.67
2023-02-16T17:22:31.471Z,41.71
2023-02-16T17:25:20.770Z,41.78
2023-02-16T17:28:10.693Z,42.08
2023-02-16T17:30:59.740Z,42.00
2023-02-16T17:33:48.442Z,42.24
2023-02-16T17:36:39.411Z,42.48
2023-02-16T17:39:28.383Z,42.09
2023-02-16T17:42:17.290Z,42.00
2023-02-16T17:45:07.351Z,41.82
2023-02-16T17:47:56.089Z,41.69
2023-02-16T17:50:44.842Z,42.05
2023-02-16T17:53:34.963Z,41.77
2023-02-16T17:56:25.809Z,42.15
2023-02-16T17:59:16.113Z,42.27
2023-02-16T18:02:05.257Z,42.04
2023-02-16T18:04:54.348Z,42.33
2023-02-16T18:07:43.235Z,42.13
2023-02-16T18:10:36.867Z,42.27
2023-02-16T18:13:25.957Z,42.38
2023-02-16T18:16:19.847Z,42.48
2023-02-16T18:19:10.132Z,42.31
2023-02-16T18:21:59.434Z,42.24
2023-02-16T18:24:48.199Z,42.95
2023-02-16T18:27:39.029Z,42.64
2023-02-16T18:30:31.250Z,42.52
2023-02-16T18:33:28.813Z,42.65
2023-02-16T18:36:17.754Z,42.45
2023-02-16T18:39:29.425Z,42.67
2023-02-16T18:42:33.437Z,42.52
2023-02-16T18:45:41.932Z,42.48
2023-02-16T18:48:32.614Z,42.36
2023-02-16T19:06:59.924Z,42.77
2023-02-16T19:09:49.380Z,42.30
2023-02-16T19:12:38.204Z,42.34
2023-02-16T19:15:27.268Z,42.27
2023-02-16T19:18:15.939Z,42.15
2023-02-16T19:21:07.375Z,42.44
2023-02-16T19:23:57.451Z,42.64
2023-02-16T19:26:46.055Z,42.86
2023-02-16T19:29:35.050Z,42.64
2023-02-16T19:32:23.762Z,42.24
2023-02-16T19:35:13.003Z,42.80
2023-02-16T19:38:01.690Z,43.09
2023-02-16T19:40:51.793Z,43.07
2023-02-16T19:43:40.690Z,43.04
2023-02-16T19:46:30.226Z,43.00
2023-02-16T19:49:19.215Z,42.71
2023-02-16T19:52:07.806Z,43.22
2023-02-16T19:54:56.472Z,43.22
2023-02-16T19:57:47.420Z,43.48
2023-02-16T20:00:36.082Z,43.49
2023-02-16T20:03:24.829Z,43.64
2023-02-16T20:06:15.442Z,43.41
2023-02-16T20:09:04.374Z,43.42
2023-02-16T20:11:53.735Z,43.66
2023-02-16T20:14:43.702Z,43.95
2023-02-16T20:17:32.572Z,44.09
2023-02-16T20:20:21.273Z,44.32
2023-02-16T20:23:09.994Z,44.28
2023-02-16T20:25:59.151Z,44.26
2023-02-16T20:28:48.734Z,43.72
2023-02-16T20:31:42.860Z,43.19
2023-02-16T20:34:31.806Z,42.56
2023-02-16T20:37:21.725Z,42.92
2023-02-16T20:40:11.286Z,42.46
2023-02-16T20:42:59.964Z,41.97
2023-02-16T20:45:49.305Z,41.95
2023-02-16T20:48:40.023Z,41.84
2023-02-16T20:51:28.739Z,41.88
2023-02-16T20:54:17.458Z,42.32
2023-02-16T20:57:09.489Z,42.24
2023-02-16T21:00:01.794Z,42.35
2023-02-16T21:02:50.585Z,42.81
2023-02-16T21:05:40.696Z,43.13
2023-02-16T21:08:29.419Z,42.74
2023-02-16T21:11:18.383Z,42.49
2023-02-16T21:14:08.055Z,42.64
2023-02-16T21:16:56.771Z,42.47
2023-02-16T21:19:45.447Z,43.19
2023-02-16T21:22:35.560Z,43.57
2023-02-16T21:25:24.966Z,43.55
2023-02-16T21:28:13.724Z,43.33
2023-02-16T21:31:04.127Z,43.34
2023-02-16T21:33:53.597Z,43.16
2023-02-16T21:36:42.245Z,43.50
2023-02-16T21:39:49.949Z,43.42
2023-02-16T21:42:38.618Z,43.79
2023-02-16T21:45:29.959Z,44.01
2023-02-16T21:48:36.269Z,44.67
2023-02-16T21:51:27.934Z,44.72
2023-02-16T21:54:17.873Z,44.87
2023-02-16T21:57:06.936Z,44.86
2023-02-16T21:59:55.565Z,44.84
2023-02-16T22:02:44.169Z,44.72
2023-02-16T22:05:33.114Z,45.08
2023-02-16T22:08:21.746Z,45.18
2023-02-16T22:11:12.115Z,45.22
2023-02-16T22:14:02.639Z,45.04
2023-02-16T22:16:51.861Z,45.35
2023-02-16T22:19:40.570Z,45.09
2023-02-16T22:22:31.665Z,45.01
2023-02-16T22:25:20.396Z,45.05
2023-02-16T22:28:09.249Z,45.20
2023-02-16T22:30:59.707Z,45.62
2023-02-16T22:33:48.685Z,45.33
2023-02-16T22:36:38.319Z,45.25
2023-02-16T22:39:26.998Z,45.44
2023-02-16T22:42:16.030Z,45.31
2023-02-16T22:45:04.963Z,45.45
2023-02-16T22:47:56.212Z,45.56
2023-02-16T22:50:44.900Z,45.44
2023-02-16T22:53:33.661Z,45.53
2023-02-16T22:56:22.320Z,45.70
2023-02-16T22:59:11.768Z,45.42
2023-02-16T23:02:00.453Z,45.76
2023-02-16T23:04:50.408Z,45.62
2023-02-16T23:07:39.118Z,45.19
2023-02-16T23:10:27.732Z,45.60
2023-02-16T23:13:16.343Z,45.40
2023-02-16T23:16:06.417Z,45.46
2023-02-16T23:18:56.691Z,45.46
2023-02-16T23:21:47.209Z,45.63
2023-02-16T23:24:36.030Z,45.60
2023-02-16T23:27:24.664Z,45.57
2023-02-16T23:30:13.868Z,45.42
2023-02-16T23:33:02.518Z,45.58
2023-02-16T23:35:51.226Z,45.23
2023-02-16T23:38:41.590Z,45.37
2023-02-16T23:54:37.473Z,45.94
2023-02-16T23:57:30.652Z,45.59
